sensor_id;sensor_type;location;lat;lon;timestamp;pressure;altitude;pressure_sealevel;temperature;humidity
4586;BME280;2305;50.118;8.952;2024-02-26T00:00:37;98796.03;;;8.37;100.00
4586;BME280;2305;50.118;8.952;2024-02-26T00:03:05;98793.41;;;8.37;100.00
4586;BME280;2305;50.118;8.952;2024-02-26T00:05:34;98782.38;;;8.33;100.00
4586;BME280;2305;50.118;8.952;2024-02-26T00:08:02;98783.19;;;8.34;100.00
4586;BME280;2305;50.118;8.952;2024-02-26T00:10:31;98789.28;;;8.34;100.00
4586;BME280;2305;50.118;8.952;2024-02-26T00:12:59;98801.41;;;8.35;100.00
4586;BME280;2305;50.118;8.952;2024-02-26T00:15:29;98796.03;;;8.37;100.00
4586;BME280;2305;50.118;8.952;2024-02-26T00:17:57;98788.16;;;8.37;100.00
4586;BME280;2305;50.118;8.952;2024-02-26T00:20:25;98779.59;;;8.35;100.00
4586;BME280;2305;50.118;8.952;2024-02-26T00:22:54;98778.47;;;8.37;100.00
4586;BME280;2305;50.118;8.952;2024-02-26T00:25:21;98787.97;;;8.38;100.00
4586;BME280;2305;50.118;8.952;2024-02-26T00:27:52;98783.72;;;8.37;100.00
4586;BME280;2305;50.118;8.952;2024-02-26T00:30:20;98779.44;;;8.36;100.00
4586;BME280;2305;50.118;8.952;2024-02-26T00:32:50;98782.06;;;8.36;100.00
4586;BME280;2305;50.118;8.952;2024-02-26T00:35:18;98780.94;;;8.39;100.00
4586;BME280;2305;50.118;8.952;2024-02-26T00:37:47;98779.00;;;8.41;100.00
4586;BME280;2305;50.118;8.952;2024-02-26T00:40:15;98772.75;;;8.42;100.00
4586;BME280;2305;50.118;8.952;2024-02-26T00:42:43;98774.59;;;8.41;100.00
4586;BME280;2305;50.118;8.952;2024-02-26T00:45:14;98784.09;;;8.42;100.00
4586;BME280;2305;50.118;8.952;2024-02-26T00:47:43;98776.22;;;8.42;100.00
4586;BME280;2305;50.118;8.952;2024-02-26T00:50:15;98776.09;;;8.44;100.00
4586;BME280;2305;50.118;8.952;2024-02-26T00:52:43;98768.03;;;8.45;100.00
4586;BME280;2305;50.118;8.952;2024-02-26T00:55:13;98778.41;;;8.47;100.00
4586;BME280;2305;50.118;8.952;2024-02-26T00:57:41;98770.53;;;8.47;100.00
4586;BME280;2305;50.118;8.952;2024-02-26T01:00:10;98782.66;;;8.48;100.00
4586;BME280;2305;50.118;8.952;2024-02-26T01:02:39;98777.28;;;8.49;100.00
4586;BME280;2305;50.118;8.952;2024-02-26T01:05:08;98770.38;;;8.48;100.00
4586;BME280;2305;50.118;8.952;2024-02-26T01:07:38;98771.06;;;8.50;100.00
4586;BME280;2305;50.118;8.952;2024-02-26T01:10:09;98775.50;;;8.50;100.00
4586;BME280;2305;50.118;8.952;2024-02-26T01:12:37;98774.53;;;8.51;100.00
4586;BME280;2305;50.118;8.952;2024-02-26T01:15:06;98769.28;;;8.51;100.00
4586;BME280;2305;50.118;8.952;2024-02-26T01:17:36;98751.03;;;8.49;100.00
4586;BME280;2305;50.118;8.952;2024-02-26T01:20:06;98756.16;;;8.51;100.00
4586;BME280;2305;50.118;8.952;2024-02-26T01:22:35;98726.97;;;8.54;100.00
4586;BME280;2305;50.118;8.952;2024-02-26T01:25:05;98739.28;;;8.53;100.00
4586;BME280;2305;50.118;8.952;2024-02-26T01:27:34;98725.31;;;8.53;100.00
4586;BME280;2305;50.118;8.952;2024-02-26T01:30:01;98703.34;;;8.54;100.00
4586;BME280;2305;50.118;8.952;2024-02-26T01:32:30;98711.34;;;8.52;100.00
4586;BME280;2305;50.118;8.952;2024-02-26T01:34:58;98717.59;;;8.51;100.00
4586;BME280;2305;50.118;8.952;2024-02-26T01:37:31;98747.22;;;8.61;100.00
4586;BME280;2305;50.118;8.952;2024-02-26T01:39:59;98741.13;;;8.61;100.00
4586;BME280;2305;50.118;8.952;2024-02-26T01:42:32;98742.72;;;8.54;100.00
4586;BME280;2305;50.118;8.952;2024-02-26T01:45:00;98722.53;;;8.54;100.00
4586;BME280;2305;50.118;8.952;2024-02-26T01:47:29;98733.19;;;8.53;100.00
4586;BME280;2305;50.118;8.952;2024-02-26T01:49:57;98778.13;;;8.67;100.00
4586;BME280;2305;50.118;8.952;2024-02-26T01:52:25;98770.06;;;8.86;100.00
4586;BME280;2305;50.118;8.952;2024-02-26T01:54:54;98748.94;;;8.70;100.00
4586;BME280;2305;50.118;8.952;2024-02-26T01:57:22;98738.34;;;8.62;100.00
4586;BME280;2305;50.118;8.952;2024-02-26T01:59:51;98750.72;;;8.52;100.00
4586;BME280;2305;50.118;8.952;2024-02-26T02:02:20;98766.47;;;8.52;100.00
4586;BME280;2305;50.118;8.952;2024-02-26T02:04:49;98774.53;;;8.51;100.00
4586;BME280;2305;50.118;8.952;2024-02-26T02:07:18;98746.75;;;8.48;100.00
4586;BME280;2305;50.118;8.952;2024-02-26T02:09:48;98743.63;;;8.45;100.00
4586;BME280;2305;50.118;8.952;2024-02-26T02:12:16;98746.91;;;8.47;100.00
4586;BME280;2305;50.118;8.952;2024-02-26T02:14:45;98717.38;;;8.45;100.00
4586;BME280;2305;50.118;8.952;2024-02-26T02:17:14;98725.91;;;8.47;100.00
4586;BME280;2305;50.118;8.952;2024-02-26T02:19:42;98714.44;;;8.48;100.00
4586;BME280;2305;50.118;8.952;2024-02-26T02:22:12;98695.47;;;8.54;100.00
4586;BME280;2305;50.118;8.952;2024-02-26T02:24:40;98688.25;;;8.56;100.00
4586;BME280;2305;50.118;8.952;2024-02-26T02:27:08;98701.38;;;8.56;100.00
4586;BME280;2305;50.118;8.952;2024-02-26T02:29:37;98725.84;;;8.56;100.00
4586;BME280;2305;50.118;8.952;2024-02-26T02:32:05;98728.16;;;8.59;100.00
4586;BME280;2305;50.118;8.952;2024-02-26T02:34:34;98728.16;;;8.59;100.00
4586;BME280;2305;50.118;8.952;2024-02-26T02:37:02;98762.66;;;8.64;100.00
4586;BME280;2305;50.118;8.952;2024-02-26T02:39:32;98759.72;;;8.85;100.00
4586;BME280;2305;50.118;8.952;2024-02-26T02:42:00;98765.88;;;8.76;100.00
4586;BME280;2305;50.118;8.952;2024-02-26T02:44:30;98720.09;;;8.78;100.00
4586;BME280;2305;50.118;8.952;2024-02-26T02:46:58;98739.53;;;8.68;100.00
4586;BME280;2305;50.118;8.952;2024-02-26T02:49:27;98753.13;;;8.63;100.00
4586;BME280;2305;50.118;8.952;2024-02-26T02:51:55;98745.63;;;8.68;100.00
4586;BME280;2305;50.118;8.952;2024-02-26T02:54:24;98746.09;;;8.64;100.00
4586;BME280;2305;50.118;8.952;2024-02-26T02:56:53;98734.09;;;8.61;100.00
4586;BME280;2305;50.118;8.952;2024-02-26T02:59:21;98728.97;;;8.60;100.00
4586;BME280;2305;50.118;8.952;2024-02-26T03:01:49;98743.91;;;8.59;100.00
4586;BME280;2305;50.118;8.952;2024-02-26T03:04:17;98799.94;;;8.85;100.00
4586;BME280;2305;50.118;8.952;2024-02-26T03:06:45;98764.22;;;8.75;100.00
4586;BME280;2305;50.118;8.952;2024-02-26T03:09:15;98780.66;;;8.59;100.00
4586;BME280;2305;50.118;8.952;2024-02-26T03:11:43;98771.97;;;8.59;100.00
4586;BME280;2305;50.118;8.952;2024-02-26T03:14:13;98768.34;;;8.60;100.00
4586;BME280;2305;50.118;8.952;2024-02-26T03:16:42;98773.00;;;8.48;100.00
4586;BME280;2305;50.118;8.952;2024-02-26T03:19:14;98773.47;;;8.44;100.00
4586;BME280;2305;50.118;8.952;2024-02-26T03:21:45;98774.06;;;8.38;100.00
4586;BME280;2305;50.118;8.952;2024-02-26T03:24:14;98765.13;;;8.31;100.00
4586;BME280;2305;50.118;8.952;2024-02-26T03:26:42;98764.69;;;8.35;100.00
4586;BME280;2305;50.118;8.952;2024-02-26T03:29:10;98773.38;;;8.36;100.00
4586;BME280;2305;50.118;8.952;2024-02-26T03:31:39;98777.34;;;8.40;100.00
4586;BME280;2305;50.118;8.952;2024-02-26T03:34:07;98769.09;;;8.35;100.00
4586;BME280;2305;50.118;8.952;2024-02-26T03:36:36;98761.53;;;8.32;100.00
4586;BME280;2305;50.118;8.952;2024-02-26T03:39:06;98766.91;;;8.30;100.00
4586;BME280;2305;50.118;8.952;2024-02-26T03:41:34;98775.47;;;8.32;100.00
4586;BME280;2305;50.118;8.952;2024-02-26T03:44:03;98773.00;;;8.31;100.00
4586;BME280;2305;50.118;8.952;2024-02-26T03:46:31;98777.72;;;8.27;100.00
4586;BME280;2305;50.118;8.952;2024-02-26T03:49:00;98782.38;;;8.33;100.00
4586;BME280;2305;50.118;8.952;2024-02-26T03:51:29;98766.25;;;8.28;100.00
4586;BME280;2305;50.118;8.952;2024-02-26T03:53:58;98770.00;;;8.26;100.00
4586;BME280;2305;50.118;8.952;2024-02-26T03:56:26;98768.88;;;8.28;100.00
4586;BME280;2305;50.118;8.952;2024-02-26T03:58:54;98780.34;;;8.27;100.00
4586;BME280;2305;50.118;8.952;2024-02-26T04:01:22;98781.72;;;8.31;100.00
4586;BME280;2305;50.118;8.952;2024-02-26T04:03:53;98788.53;;;8.24;100.00
4586;BME280;2305;50.118;8.952;2024-02-26T04:06:22;98797.50;;;8.22;100.00
4586;BME280;2305;50.118;8.952;2024-02-26T04:08:52;98794.72;;;8.23;100.00
4586;BME280;2305;50.118;8.952;2024-02-26T04:11:20;98792.25;;;8.22;100.00
4586;BME280;2305;50.118;8.952;2024-02-26T04:13:49;98791.16;;;8.24;100.00
4586;BME280;2305;50.118;8.952;2024-02-26T04:16:19;98790.44;;;8.22;100.00
4586;BME280;2305;50.118;8.952;2024-02-26T04:18:47;98788.13;;;8.19;100.00
4586;BME280;2305;50.118;8.952;2024-02-26T04:21:15;98798.19;;;8.24;100.00
4586;BME280;2305;50.118;8.952;2024-02-26T04:23:44;98804.94;;;8.26;100.00
4586;BME280;2305;50.118;8.952;2024-02-26T04:26:12;98795.25;;;8.27;100.00
4586;BME280;2305;50.118;8.952;2024-02-26T04:28:42;98801.34;;;8.27;100.00
4586;BME280;2305;50.118;8.952;2024-02-26T04:31:09;98801.34;;;8.27;100.00
4586;BME280;2305;50.118;8.952;2024-02-26T04:33:37;98797.19;;;8.25;100.00
4586;BME280;2305;50.118;8.952;2024-02-26T04:36:12;98800.94;;;8.22;100.00
4586;BME280;2305;50.118;8.952;2024-02-26T04:38:41;98800.66;;;8.25;100.00
4586;BME280;2305;50.118;8.952;2024-02-26T04:41:10;98805.91;;;8.25;100.00
4586;BME280;2305;50.118;8.952;2024-02-26T04:43:40;98800.66;;;8.25;100.00
4586;BME280;2305;50.118;8.952;2024-02-26T04:46:09;98799.00;;;8.24;100.00
4586;BME280;2305;50.118;8.952;2024-02-26T04:48:38;98792.94;;;8.24;100.00
4586;BME280;2305;50.118;8.952;2024-02-26T04:51:08;98799.16;;;8.23;100.00
4586;BME280;2305;50.118;8.952;2024-02-26T04:53:37;98790.44;;;8.22;100.00
4586;BME280;2305;50.118;8.952;2024-02-26T04:56:06;98801.91;;;8.21;100.00
4586;BME280;2305;50.118;8.952;2024-02-26T04:58:36;98794.03;;;8.21;100.00
4586;BME280;2305;50.118;8.952;2024-02-26T05:01:08;98790.63;;;8.21;100.00
4586;BME280;2305;50.118;8.952;2024-02-26T05:03:39;98800.38;;;8.19;100.00
4586;BME280;2305;50.118;8.952;2024-02-26T05:06:07;98800.38;;;8.19;100.00
4586;BME280;2305;50.118;8.952;2024-02-26T05:08:36;98802.88;;;8.20;100.00
4586;BME280;2305;50.118;8.952;2024-02-26T05:11:05;98809.22;;;8.18;100.00
4586;BME280;2305;50.118;8.952;2024-02-26T05:13:33;98815.16;;;8.20;100.00
4586;BME280;2305;50.118;8.952;2024-02-26T05:16:03;98821.13;;;8.22;100.00
4586;BME280;2305;50.118;8.952;2024-02-26T05:18:31;98813.78;;;8.25;100.00
4586;BME280;2305;50.118;8.952;2024-02-26T05:21:01;98812.53;;;8.20;100.00
4586;BME280;2305;50.118;8.952;2024-02-26T05:23:30;98813.06;;;8.23;100.00
4586;BME280;2305;50.118;8.952;2024-02-26T05:25:58;98813.91;;;8.24;100.00
4586;BME280;2305;50.118;8.952;2024-02-26T05:28:29;98826.06;;;8.25;100.00
4586;BME280;2305;50.118;8.952;2024-02-26T05:30:57;98815.69;;;8.23;100.00
4586;BME280;2305;50.118;8.952;2024-02-26T05:33:27;98811.59;;;8.21;100.00
4586;BME280;2305;50.118;8.952;2024-02-26T05:35:55;98811.03;;;8.17;100.00
4586;BME280;2305;50.118;8.952;2024-02-26T05:38:23;98811.84;;;8.18;100.00
4586;BME280;2305;50.118;8.952;2024-02-26T05:40:51;98816.13;;;8.19;100.00
4586;BME280;2305;50.118;8.952;2024-02-26T05:43:19;98816.13;;;8.19;100.00
4586;BME280;2305;50.118;8.952;2024-02-26T05:45:47;98817.09;;;8.18;100.00
4586;BME280;2305;50.118;8.952;2024-02-26T05:48:15;98822.47;;;8.16;100.00
4586;BME280;2305;50.118;8.952;2024-02-26T05:50:45;98834.78;;;8.16;100.00
4586;BME280;2305;50.118;8.952;2024-02-26T05:53:13;98827.88;;;8.15;100.00
4586;BME280;2305;50.118;8.952;2024-02-26T05:55:41;98829.00;;;8.12;100.00
4586;BME280;2305;50.118;8.952;2024-02-26T05:58:09;98836.72;;;8.14;100.00
4586;BME280;2305;50.118;8.952;2024-02-26T06:00:37;98832.75;;;8.10;100.00
4586;BME280;2305;50.118;8.952;2024-02-26T06:03:05;98837.97;;;8.10;100.00
4586;BME280;2305;50.118;8.952;2024-02-26T06:05:33;98834.38;;;8.11;100.00
4586;BME280;2305;50.118;8.952;2024-02-26T06:08:07;98829.13;;;8.11;100.00
4586;BME280;2305;50.118;8.952;2024-02-26T06:10:37;98836.03;;;8.12;100.00
4586;BME280;2305;50.118;8.952;2024-02-26T06:13:06;98843.22;;;8.10;100.00
4586;BME280;2305;50.118;8.952;2024-02-26T06:15:34;98854.56;;;8.10;100.00
4586;BME280;2305;50.118;8.952;2024-02-26T06:18:02;98860.63;;;8.11;100.00
4586;BME280;2305;50.118;8.952;2024-02-26T06:20:30;98854.69;;;8.09;100.00
4586;BME280;2305;50.118;8.952;2024-02-26T06:22:58;98860.75;;;8.09;100.00
4586;BME280;2305;50.118;8.952;2024-02-26T06:25:28;98862.44;;;8.10;100.00
4586;BME280;2305;50.118;8.952;2024-02-26T06:27:58;98869.31;;;8.11;100.00
4586;BME280;2305;50.118;8.952;2024-02-26T06:30:26;98867.50;;;8.12;100.00
4586;BME280;2305;50.118;8.952;2024-02-26T06:32:54;98876.09;;;8.14;100.00
4586;BME280;2305;50.118;8.952;2024-02-26T06:35:22;98882.00;;;8.16;100.00
4586;BME280;2305;50.118;8.952;2024-02-26T06:37:50;98878.00;;;8.12;100.00
4586;BME280;2305;50.118;8.952;2024-02-26T06:40:19;98879.66;;;8.13;100.00
4586;BME280;2305;50.118;8.952;2024-02-26T06:42:48;98889.88;;;8.16;100.00
4586;BME280;2305;50.118;8.952;2024-02-26T06:45:17;98891.66;;;8.15;100.00
4586;BME280;2305;50.118;8.952;2024-02-26T06:47:46;98886.56;;;8.14;100.00
4586;BME280;2305;50.118;8.952;2024-02-26T06:50:14;98897.88;;;8.14;100.00
4586;BME280;2305;50.118;8.952;2024-02-26T06:52:44;98896.09;;;8.15;100.00
4586;BME280;2305;50.118;8.952;2024-02-26T06:55:12;98892.34;;;8.17;100.00
4586;BME280;2305;50.118;8.952;2024-02-26T06:57:40;98893.16;;;8.18;100.00
4586;BME280;2305;50.118;8.952;2024-02-26T07:00:11;98897.44;;;8.19;100.00
4586;BME280;2305;50.118;8.952;2024-02-26T07:02:44;98906.28;;;8.18;100.00
4586;BME280;2305;50.118;8.952;2024-02-26T07:05:12;98906.28;;;8.18;100.00
4586;BME280;2305;50.118;8.952;2024-02-26T07:07:42;98902.56;;;8.20;100.00
4586;BME280;2305;50.118;8.952;2024-02-26T07:10:11;98907.69;;;8.22;100.00
4586;BME280;2305;50.118;8.952;2024-02-26T07:12:39;98913.59;;;8.24;100.00
4586;BME280;2305;50.118;8.952;2024-02-26T07:15:11;98916.91;;;8.26;100.00
4586;BME280;2305;50.118;8.952;2024-02-26T07:17:39;98916.09;;;8.25;100.00
4586;BME280;2305;50.118;8.952;2024-02-26T07:20:09;98920.50;;;8.25;100.00
4586;BME280;2305;50.118;8.952;2024-02-26T07:22:38;98924.78;;;8.26;100.00
4586;BME280;2305;50.118;8.952;2024-02-26T07:25:09;98930.72;;;8.28;100.00
4586;BME280;2305;50.118;8.952;2024-02-26T07:27:40;98922.84;;;8.28;100.00
4586;BME280;2305;50.118;8.952;2024-02-26T07:30:10;98925.31;;;8.29;100.00
4586;BME280;2305;50.118;8.952;2024-02-26T07:32:39;98928.09;;;8.28;100.00
4586;BME280;2305;50.118;8.952;2024-02-26T07:35:09;98932.38;;;8.29;100.00
4586;BME280;2305;50.118;8.952;2024-02-26T07:37:37;98932.38;;;8.29;100.00
4586;BME280;2305;50.118;8.952;2024-02-26T07:40:06;98933.19;;;8.29;100.00
4586;BME280;2305;50.118;8.952;2024-02-26T07:42:37;98939.28;;;8.30;100.00
4586;BME280;2305;50.118;8.952;2024-02-26T07:45:06;98934.59;;;8.24;100.00
4586;BME280;2305;50.118;8.952;2024-02-26T07:47:36;98937.91;;;8.26;100.00
4586;BME280;2305;50.118;8.952;2024-02-26T07:50:08;98942.16;;;8.27;100.00
4586;BME280;2305;50.118;8.952;2024-02-26T07:52:36;98944.25;;;8.23;100.00
4586;BME280;2305;50.118;8.952;2024-02-26T07:55:05;98943.44;;;8.23;100.00
4586;BME280;2305;50.118;8.952;2024-02-26T07:57:33;98948.56;;;8.24;100.00
4586;BME280;2305;50.118;8.952;2024-02-26T08:00:02;98953.63;;;8.26;100.00
4586;BME280;2305;50.118;8.952;2024-02-26T08:02:33;98945.78;;;8.26;100.00
4586;BME280;2305;50.118;8.952;2024-02-26T08:05:03;98948.94;;;8.29;100.00
4586;BME280;2305;50.118;8.952;2024-02-26T08:07:33;98954.72;;;8.33;100.00
4586;BME280;2305;50.118;8.952;2024-02-26T08:10:01;98954.72;;;8.33;100.00
4586;BME280;2305;50.118;8.952;2024-02-26T08:12:29;98961.91;;;8.31;100.00
4586;BME280;2305;50.118;8.952;2024-02-26T08:14:58;98965.22;;;8.33;100.00
4586;BME280;2305;50.118;8.952;2024-02-26T08:17:28;98956.91;;;8.37;100.00
4586;BME280;2305;50.118;8.952;2024-02-26T08:19:56;98966.03;;;8.43;100.00
4586;BME280;2305;50.118;8.952;2024-02-26T08:22:25;98962.41;;;8.44;100.00
4586;BME280;2305;50.118;8.952;2024-02-26T08:24:55;98972.63;;;8.47;100.00
4586;BME280;2305;50.118;8.952;2024-02-26T08:27:25;98970.66;;;8.49;100.00
4586;BME280;2305;50.118;8.952;2024-02-26T08:29:53;98973.28;;;8.49;100.00
4586;BME280;2305;50.118;8.952;2024-02-26T08:32:21;98980.03;;;8.51;100.00
4586;BME280;2305;50.118;8.952;2024-02-26T08:34:49;98963.50;;;8.51;100.00
4586;BME280;2305;50.118;8.952;2024-02-26T08:37:18;98961.69;;;8.51;100.00
4586;BME280;2305;50.118;8.952;2024-02-26T08:39:49;98964.84;;;8.55;100.00
4586;BME280;2305;50.118;8.952;2024-02-26T08:42:17;98962.91;;;8.57;100.00
4586;BME280;2305;50.118;8.952;2024-02-26T08:44:45;98964.56;;;8.58;100.00
4586;BME280;2305;50.118;8.952;2024-02-26T08:47:14;98963.97;;;8.64;100.00
4586;BME280;2305;50.118;8.952;2024-02-26T08:49:44;98966.97;;;8.69;100.00
4586;BME280;2305;50.118;8.952;2024-02-26T08:52:12;98972.09;;;8.70;100.00
4586;BME280;2305;50.118;8.952;2024-02-26T08:54:42;98970.84;;;8.74;100.00
4586;BME280;2305;50.118;8.952;2024-02-26T08:57:11;98974.28;;;8.75;100.00
4586;BME280;2305;50.118;8.952;2024-02-26T08:59:39;98976.63;;;8.78;100.00
4586;BME280;2305;50.118;8.952;2024-02-26T09:02:07;98978.28;;;8.79;100.00
4586;BME280;2305;50.118;8.952;2024-02-26T09:04:35;98972.72;;;8.82;100.00
4586;BME280;2305;50.118;8.952;2024-02-26T09:07:07;98970.75;;;8.83;100.00
4586;BME280;2305;50.118;8.952;2024-02-26T09:09:35;98982.78;;;8.86;100.00
4586;BME280;2305;50.118;8.952;2024-02-26T09:12:04;98984.81;;;8.92;100.00
4586;BME280;2305;50.118;8.952;2024-02-26T09:14:34;98978.13;;;8.97;100.00
4586;BME280;2305;50.118;8.952;2024-02-26T09:17:02;98980.19;;;9.03;100.00
4586;BME280;2305;50.118;8.952;2024-02-26T09:19:30;98978.63;;;9.10;100.00
4586;BME280;2305;50.118;8.952;2024-02-26T09:21:58;98980.13;;;9.13;100.00
4586;BME280;2305;50.118;8.952;2024-02-26T09:24:29;98985.78;;;9.18;100.00
4586;BME280;2305;50.118;8.952;2024-02-26T09:26:57;98987.09;;;9.22;100.00
4586;BME280;2305;50.118;8.952;2024-02-26T09:29:27;98997.69;;;9.30;100.00
4586;BME280;2305;50.118;8.952;2024-02-26T09:31:56;98995.59;;;9.33;100.00
4586;BME280;2305;50.118;8.952;2024-02-26T09:34:24;98984.81;;;9.36;100.00
4586;BME280;2305;50.118;8.952;2024-02-26T09:36:52;98992.38;;;9.39;100.00
4586;BME280;2305;50.118;8.952;2024-02-26T09:39:30;98988.09;;;9.38;100.00
4586;BME280;2305;50.118;8.952;2024-02-26T09:42:00;99001.91;;;9.40;100.00
4586;BME280;2305;50.118;8.952;2024-02-26T09:44:33;99006.56;;;9.46;100.00
4586;BME280;2305;50.118;8.952;2024-02-26T09:47:08;99001.84;;;9.50;100.00
4586;BME280;2305;50.118;8.952;2024-02-26T09:49:37;99009.59;;;9.51;100.00
4586;BME280;2305;50.118;8.952;2024-02-26T09:52:06;99012.94;;;9.61;100.00
4586;BME280;2305;50.118;8.952;2024-02-26T09:54:39;99007.75;;;9.69;100.00
4586;BME280;2305;50.118;8.952;2024-02-26T09:57:09;99007.69;;;9.79;100.00
4586;BME280;2305;50.118;8.952;2024-02-26T09:59:42;99006.41;;;9.83;100.00
4586;BME280;2305;50.118;8.952;2024-02-26T10:02:13;99013.00;;;9.87;100.00
4586;BME280;2305;50.118;8.952;2024-02-26T10:04:42;99015.63;;;9.87;100.00
4586;BME280;2305;50.118;8.952;2024-02-26T10:07:16;99018.56;;;9.84;100.00
4586;BME280;2305;50.118;8.952;2024-02-26T10:09:44;99014.75;;;9.78;100.00
4586;BME280;2305;50.118;8.952;2024-02-26T10:12:13;99020.16;;;9.77;100.00
4586;BME280;2305;50.118;8.952;2024-02-26T10:14:42;99024.75;;;9.75;100.00
4586;BME280;2305;50.118;8.952;2024-02-26T10:17:13;99029.19;;;9.74;100.00
4586;BME280;2305;50.118;8.952;2024-02-26T10:19:41;99029.84;;;9.76;100.00
4586;BME280;2305;50.118;8.952;2024-02-26T10:22:09;99031.22;;;9.80;100.00
4586;BME280;2305;50.118;8.952;2024-02-26T10:24:37;99042.47;;;9.90;100.00
4586;BME280;2305;50.118;8.952;2024-02-26T10:27:05;99023.44;;;9.96;100.00
4586;BME280;2305;50.118;8.952;2024-02-26T10:29:34;99022.97;;;10.01;100.00
4586;BME280;2305;50.118;8.952;2024-02-26T10:32:02;99025.22;;;10.05;100.00
4586;BME280;2305;50.118;8.952;2024-02-26T10:34:32;99026.25;;;10.12;100.00
4586;BME280;2305;50.118;8.952;2024-02-26T10:37:01;99026.28;;;10.20;100.00
4586;BME280;2305;50.118;8.952;2024-02-26T10:39:30;99019.13;;;10.30;100.00
4586;BME280;2305;50.118;8.952;2024-02-26T10:41:59;99025.16;;;10.48;100.00
4586;BME280;2305;50.118;8.952;2024-02-26T10:44:31;99020.97;;;10.63;100.00
4586;BME280;2305;50.118;8.952;2024-02-26T10:46:59;99034.34;;;10.78;100.00
4586;BME280;2305;50.118;8.952;2024-02-26T10:49:27;99033.25;;;10.88;100.00
4586;BME280;2305;50.118;8.952;2024-02-26T10:51:57;99030.31;;;10.91;100.00
4586;BME280;2305;50.118;8.952;2024-02-26T10:54:27;99026.69;;;10.92;100.00
4586;BME280;2305;50.118;8.952;2024-02-26T10:56:57;99030.88;;;11.11;100.00
4586;BME280;2305;50.118;8.952;2024-02-26T10:59:27;99026.97;;;11.23;100.00
4586;BME280;2305;50.118;8.952;2024-02-26T11:01:56;99031.41;;;11.30;100.00
4586;BME280;2305;50.118;8.952;2024-02-26T11:04:27;99037.53;;;11.31;100.00
4586;BME280;2305;50.118;8.952;2024-02-26T11:06:58;99041.81;;;11.32;100.00
4586;BME280;2305;50.118;8.952;2024-02-26T11:09:28;99047.22;;;11.30;100.00
4586;BME280;2305;50.118;8.952;2024-02-26T11:11:56;99048.41;;;11.36;100.00
4586;BME280;2305;50.118;8.952;2024-02-26T11:14:29;99045.97;;;11.42;100.00
4586;BME280;2305;50.118;8.952;2024-02-26T11:16:58;99056.56;;;11.58;100.00
4586;BME280;2305;50.118;8.952;2024-02-26T11:19:32;99054.59;;;11.68;100.00
4586;BME280;2305;50.118;8.952;2024-02-26T11:22:06;99062.19;;;11.71;100.00
4586;BME280;2305;50.118;8.952;2024-02-26T11:24:47;99066.84;;;11.77;100.00
4586;BME280;2305;50.118;8.952;2024-02-26T11:27:17;99055.13;;;11.80;100.00
4586;BME280;2305;50.118;8.952;2024-02-26T11:29:48;99053.28;;;11.80;100.00
4586;BME280;2305;50.118;8.952;2024-02-26T11:32:19;99047.53;;;11.85;100.00
4586;BME280;2305;50.118;8.952;2024-02-26T11:34:47;99038.28;;;11.97;100.00
4586;BME280;2305;50.118;8.952;2024-02-26T11:37:18;99042.41;;;12.07;100.00
4586;BME280;2305;50.118;8.952;2024-02-26T11:39:51;99046.69;;;12.16;100.00
4586;BME280;2305;50.118;8.952;2024-02-26T11:42:23;99041.75;;;12.21;100.00
4586;BME280;2305;50.118;8.952;2024-02-26T11:44:52;99057.09;;;12.26;100.00
4586;BME280;2305;50.118;8.952;2024-02-26T11:47:22;99058.75;;;12.27;100.00
4586;BME280;2305;50.118;8.952;2024-02-26T11:49:51;99063.22;;;12.26;100.00
4586;BME280;2305;50.118;8.952;2024-02-26T11:52:20;99059.25;;;12.14;100.00
4586;BME280;2305;50.118;8.952;2024-02-26T11:54:49;99058.59;;;12.04;100.00
4586;BME280;2305;50.118;8.952;2024-02-26T11:57:26;99063.38;;;12.01;100.00
4586;BME280;2305;50.118;8.952;2024-02-26T11:59:56;99057.13;;;12.10;100.00
4586;BME280;2305;50.118;8.952;2024-02-26T12:02:46;99061.22;;;12.28;100.00
4586;BME280;2305;50.118;8.952;2024-02-26T12:05:16;99056.25;;;12.41;100.00
4586;BME280;2305;50.118;8.952;2024-02-26T12:07:47;99064.00;;;12.51;100.00
4586;BME280;2305;50.118;8.952;2024-02-26T12:10:26;99057.72;;;12.60;100.00
4586;BME280;2305;50.118;8.952;2024-02-26T12:12:58;99060.03;;;12.55;100.00
4586;BME280;2305;50.118;8.952;2024-02-26T12:15:33;99063.81;;;12.52;100.00
4586;BME280;2305;50.118;8.952;2024-02-26T12:18:03;99063.31;;;12.57;100.00
4586;BME280;2305;50.118;8.952;2024-02-26T12:20:34;99062.84;;;12.61;100.00
4586;BME280;2305;50.118;8.952;2024-02-26T12:23:04;99047.25;;;12.74;100.00
4586;BME280;2305;50.118;8.952;2024-02-26T12:25:33;99057.81;;;12.98;100.00
4586;BME280;2305;50.118;8.952;2024-02-26T12:28:01;99051.91;;;13.19;100.00
4586;BME280;2305;50.118;8.952;2024-02-26T12:30:31;99063.25;;;13.35;100.00
4586;BME280;2305;50.118;8.952;2024-02-26T12:33:00;99064.41;;;13.33;100.00
4586;BME280;2305;50.118;8.952;2024-02-26T12:35:29;99062.94;;;13.30;100.00
4586;BME280;2305;50.118;8.952;2024-02-26T12:37:58;99064.91;;;13.36;100.00
4586;BME280;2305;50.118;8.952;2024-02-26T12:40:32;99066.16;;;13.78;100.00
4586;BME280;2305;50.118;8.952;2024-02-26T12:43:00;99059.34;;;13.98;100.00
4586;BME280;2305;50.118;8.952;2024-02-26T12:45:29;99079.50;;;14.07;100.00
4586;BME280;2305;50.118;8.952;2024-02-26T12:47:59;99080.53;;;13.98;100.00
4586;BME280;2305;50.118;8.952;2024-02-26T12:50:32;99084.69;;;13.70;100.00
4586;BME280;2305;50.118;8.952;2024-02-26T12:53:05;99077.28;;;13.44;100.00
4586;BME280;2305;50.118;8.952;2024-02-26T12:55:35;99081.94;;;13.34;100.00
4586;BME280;2305;50.118;8.952;2024-02-26T12:58:06;99087.06;;;13.35;100.00
4586;BME280;2305;50.118;8.952;2024-02-26T13:00:35;99093.16;;;13.44;100.00
4586;BME280;2305;50.118;8.952;2024-02-26T13:03:04;99093.16;;;13.44;100.00
4586;BME280;2305;50.118;8.952;2024-02-26T13:05:36;99087.34;;;13.48;100.00
4586;BME280;2305;50.118;8.952;2024-02-26T13:08:05;99093.22;;;13.58;100.00
4586;BME280;2305;50.118;8.952;2024-02-26T13:10:37;99092.84;;;13.69;100.00
4586;BME280;2305;50.118;8.952;2024-02-26T13:13:05;99092.47;;;13.72;100.00
4586;BME280;2305;50.118;8.952;2024-02-26T13:15:33;99087.66;;;13.75;100.00
4586;BME280;2305;50.118;8.952;2024-02-26T13:18:09;99092.25;;;13.81;100.00
4586;BME280;2305;50.118;8.952;2024-02-26T13:20:38;99095.91;;;13.80;100.00
4586;BME280;2305;50.118;8.952;2024-02-26T13:23:11;99102.78;;;13.89;100.00
4586;BME280;2305;50.118;8.952;2024-02-26T13:25:41;99104.75;;;13.95;100.00
4586;BME280;2305;50.118;8.952;2024-02-26T13:28:13;99107.88;;;13.99;100.00
4586;BME280;2305;50.118;8.952;2024-02-26T13:30:50;99101.22;;;14.03;100.00